Time;durP1;ratioP1;P1;durP2;ratioP2;P2;SDS_P1;SDS_P2;PMS_P1;PMS_P2;Temp;Humidity;BMP_temperature;BMP_pressure;BME280_temperature;BME280_humidity;BME280_pressure;Samples;Min_cycle;Max_cycle;Signal;HPM_P1;HPM_P2
2022/03/19 00:01:53;;;;;;;13.85;7.68;;;9.20;99.90;;;;;;5072783;28;20465;-52
2022/03/19 00:04:19;;;;;;;14.77;8.27;;;9.10;99.90;;;;;;5070520;28;20031;-52
2022/03/19 00:06:47;;;;;;;14.60;8.50;;;9.20;99.90;;;;;;5071629;28;20112;-52
2022/03/19 00:09:13;;;;;;;16.40;8.32;;;9.10;99.90;;;;;;5071940;28;20029;-52
2022/03/19 00:11:40;;;;;;;19.30;8.88;;;9.10;99.90;;;;;;5087496;28;20025;-52
2022/03/19 00:14:06;;;;;;;15.43;8.82;;;9.00;99.90;;;;;;5072075;28;20021;-52
2022/03/19 00:16:32;;;;;;;16.80;8.02;;;9.00;99.90;;;;;;5071518;28;20044;-52
2022/03/19 00:18:59;;;;;;;16.52;8.30;;;9.00;99.90;;;;;;5071733;28;20036;-52
2022/03/19 00:21:25;;;;;;;17.00;8.63;;;9.00;99.90;;;;;;5071464;28;20521;-52
2022/03/19 00:23:51;;;;;;;13.70;8.50;;;9.00;99.90;;;;;;5071474;28;20063;-52
2022/03/19 00:26:17;;;;;;;15.98;8.68;;;9.00;99.90;;;;;;5071320;28;20032;-52
2022/03/19 00:28:43;;;;;;;17.30;8.38;;;9.00;99.90;;;;;;5071394;28;20028;-52
2022/03/19 00:31:09;;;;;;;15.02;8.32;;;9.00;99.90;;;;;;5071518;28;20077;-52
2022/03/19 00:33:35;;;;;;;18.73;8.73;;;9.00;99.90;;;;;;5071415;28;20078;-52
2022/03/19 00:36:00;;;;;;;11.43;7.43;;;9.00;99.90;;;;;;5071373;28;20031;-52
2022/03/19 00:38:26;;;;;;;17.30;8.85;;;8.90;99.90;;;;;;5071668;28;20127;-52
2022/03/19 00:40:52;;;;;;;14.82;8.45;;;8.90;99.90;;;;;;5071464;28;20029;-52
2022/03/19 00:43:21;;;;;;;15.00;8.38;;;8.90;99.90;;;;;;5071043;28;20104;-52
2022/03/19 00:45:47;;;;;;;16.42;8.30;;;8.90;99.90;;;;;;5070933;28;20028;-52
2022/03/19 00:48:14;;;;;;;18.65;8.73;;;8.90;99.90;;;;;;5070935;28;20021;-52
2022/03/19 00:50:40;;;;;;;13.63;8.40;;;8.90;99.90;;;;;;5071152;28;20104;-52
2022/03/19 00:53:05;;;;;;;17.33;8.85;;;9.00;99.90;;;;;;5071169;28;20044;-52
2022/03/19 00:55:31;;;;;;;14.35;8.70;;;9.00;99.90;;;;;;5071980;28;20566;-52
2022/03/19 00:57:57;;;;;;;14.55;8.35;;;9.00;99.90;;;;;;5071407;28;20079;-52
2022/03/19 01:00:26;;;;;;;19.40;9.15;;;9.00;99.90;;;;;;5070669;28;20067;-52
2022/03/19 01:02:54;;;;;;;16.00;8.73;;;8.90;99.90;;;;;;5069264;28;20037;-52
2022/03/19 01:05:21;;;;;;;16.33;8.52;;;8.90;99.90;;;;;;5070903;28;20447;-52
2022/03/19 01:07:51;;;;;;;17.25;8.85;;;8.90;99.90;;;;;;5070859;28;20045;-53
2022/03/19 01:10:21;;;;;;;17.92;9.23;;;8.80;99.90;;;;;;5070943;28;20020;-52
2022/03/19 01:12:47;;;;;;;15.75;8.60;;;8.80;99.90;;;;;;5070701;28;20017;-52
2022/03/19 01:15:13;;;;;;;16.38;9.20;;;8.70;99.90;;;;;;5070765;28;20024;-52
2022/03/19 01:17:39;;;;;;;16.48;8.80;;;8.80;99.90;;;;;;5071315;28;20471;-52
2022/03/19 01:20:06;;;;;;;17.25;9.10;;;8.60;99.90;;;;;;5070550;28;20120;-52
2022/03/19 01:22:33;;;;;;;13.75;8.52;;;8.80;99.90;;;;;;5070672;28;20044;-52
2022/03/19 01:25:04;;;;;;;20.90;9.50;;;8.70;99.90;;;;;;5071412;28;20505;-52
2022/03/19 01:27:34;;;;;;;16.10;9.07;;;8.60;99.90;;;;;;5070874;28;20342;-52
2022/03/19 01:30:00;;;;;;;14.70;8.30;;;8.60;99.90;;;;;;5070691;28;20475;-52
2022/03/19 01:32:27;;;;;;;17.40;9.00;;;8.60;99.90;;;;;;5070599;28;20466;-52
2022/03/19 01:34:55;;;;;;;15.73;8.65;;;8.60;99.90;;;;;;5070266;28;20016;-52
2022/03/19 01:37:22;;;;;;;16.30;9.43;;;8.60;99.90;;;;;;5070883;28;20032;-52
2022/03/19 01:39:48;;;;;;;17.45;9.57;;;8.60;99.90;;;;;;5070797;28;20028;-52
2022/03/19 01:42:27;;;;;;;15.38;8.43;;;8.60;99.90;;;;;;5070471;28;20024;-50
2022/03/19 01:44:55;;;;;;;15.27;8.95;;;8.50;99.90;;;;;;5070651;28;20059;-52
2022/03/19 01:47:23;;;;;;;14.30;8.68;;;8.50;99.90;;;;;;5070382;28;20029;-52
2022/03/19 01:49:49;;;;;;;17.45;8.85;;;8.40;99.90;;;;;;5070118;28;20020;-52
2022/03/19 01:52:15;;;;;;;19.42;9.65;;;8.40;99.90;;;;;;5070328;28;20055;-52
2022/03/19 01:54:47;;;;;;;17.35;9.48;;;8.40;99.90;;;;;;5070328;28;20376;-52
2022/03/19 01:57:24;;;;;;;13.45;9.05;;;8.40;99.90;;;;;;5070267;28;20032;-52
2022/03/19 01:59:51;;;;;;;17.05;9.20;;;8.30;99.90;;;;;;5070393;28;20074;-52
2022/03/19 02:02:19;;;;;;;18.10;9.70;;;8.40;99.90;;;;;;5070470;28;20024;-52
2022/03/19 02:04:45;;;;;;;13.45;8.75;;;8.40;99.90;;;;;;5069485;28;20025;-52
2022/03/19 02:07:12;;;;;;;17.17;8.60;;;8.30;99.90;;;;;;5071509;28;20037;-52
2022/03/19 02:09:39;;;;;;;16.13;8.75;;;8.30;99.90;;;;;;5071035;28;20025;-52
2022/03/19 02:12:06;;;;;;;18.77;9.57;;;8.30;99.90;;;;;;5071809;28;20017;-52
2022/03/19 02:14:36;;;;;;;14.45;8.75;;;8.20;99.90;;;;;;5073967;28;20103;-52
2022/03/19 02:17:03;;;;;;;13.52;9.15;;;8.10;99.90;;;;;;5074560;28;20482;-52
2022/03/19 02:19:29;;;;;;;15.07;9.13;;;8.10;99.90;;;;;;5074949;28;20504;-52
2022/03/19 02:21:55;;;;;;;19.13;8.98;;;8.10;99.90;;;;;;5074438;28;20024;-52
2022/03/19 02:27:05;;;;;;;15.88;8.93;;;8.10;99.90;;;;;;5073883;28;20119;-52
2022/03/19 02:29:31;;;;;;;14.57;8.23;;;8.10;99.90;;;;;;5073472;28;20048;-52
2022/03/19 02:32:06;;;;;;;15.32;8.40;;;8.20;99.90;;;;;;5073918;28;20070;-52
2022/03/19 02:34:35;;;;;;;13.07;7.90;;;8.10;99.90;;;;;;5073942;28;20390;-52
2022/03/19 02:37:01;;;;;;;11.52;8.07;;;8.10;99.90;;;;;;5073878;28;20047;-52
2022/03/19 02:39:30;;;;;;;16.13;8.18;;;8.10;99.90;;;;;;5073729;28;20074;-52
2022/03/19 02:41:58;;;;;;;14.77;7.72;;;8.10;99.90;;;;;;5073644;28;20024;-52
2022/03/19 02:44:24;;;;;;;16.15;8.13;;;8.10;99.90;;;;;;5073784;28;20012;-52
2022/03/19 02:46:55;;;;;;;17.17;8.18;;;8.00;99.90;;;;;;5074043;28;20028;-52
2022/03/19 02:49:22;;;;;;;12.45;6.78;;;8.00;99.90;;;;;;5072002;28;20223;-52
2022/03/19 02:51:49;;;;;;;13.77;8.25;;;8.00;99.90;;;;;;5088957;28;20029;-52
2022/03/19 02:54:18;;;;;;;14.40;8.00;;;8.00;99.90;;;;;;5073313;28;20027;-52
2022/03/19 02:56:45;;;;;;;13.27;7.63;;;8.00;99.90;;;;;;5073605;28;20031;-52
2022/03/19 02:59:22;;;;;;;14.50;8.20;;;7.90;99.90;;;;;;5073237;28;20024;-52
2022/03/19 03:01:50;;;;;;;15.43;8.07;;;7.90;99.90;;;;;;5073482;28;20032;-52
2022/03/19 03:04:16;;;;;;;21.75;8.43;;;7.90;99.90;;;;;;5073093;28;20508;-52
2022/03/19 03:06:43;;;;;;;20.13;8.82;;;7.80;99.90;;;;;;5073106;28;20028;-52
2022/03/19 03:09:10;;;;;;;15.38;8.10;;;8.00;99.90;;;;;;5073218;28;20501;-52
2022/03/19 03:11:36;;;;;;;14.25;7.97;;;7.90;99.90;;;;;;5072558;28;20086;-52
2022/03/19 03:14:03;;;;;;;15.20;7.50;;;7.80;99.90;;;;;;5073424;28;20039;-52
2022/03/19 03:16:33;;;;;;;13.38;7.82;;;7.80;99.90;;;;;;5072867;28;20055;-52
2022/03/19 03:19:02;;;;;;;19.83;8.48;;;7.90;99.90;;;;;;5072596;28;20033;-52
2022/03/19 03:21:28;;;;;;;16.52;7.80;;;7.80;99.90;;;;;;5072944;28;20538;-52
2022/03/19 03:23:55;;;;;;;15.57;8.07;;;7.80;99.90;;;;;;5071232;28;20074;-52
2022/03/19 03:26:21;;;;;;;16.02;8.50;;;7.80;99.90;;;;;;5072959;28;20033;-52
2022/03/19 03:28:47;;;;;;;15.88;8.00;;;7.80;99.90;;;;;;5073222;28;20031;-52
2022/03/19 03:31:12;;;;;;;13.27;7.72;;;7.70;99.90;;;;;;5072530;28;20017;-52
2022/03/19 03:33:38;;;;;;;14.40;8.68;;;7.60;99.90;;;;;;5072758;28;20474;-52
2022/03/19 03:36:04;;;;;;;17.20;8.75;;;7.70;99.90;;;;;;5071144;28;20111;-52
2022/03/19 03:38:30;;;;;;;11.98;7.88;;;7.60;99.90;;;;;;5072714;28;20124;-52
2022/03/19 03:40:57;;;;;;;14.77;8.93;;;7.60;99.90;;;;;;5072672;28;20025;-52
2022/03/19 03:43:22;;;;;;;17.67;9.05;;;7.50;99.90;;;;;;5072361;28;20037;-52
2022/03/19 03:45:48;;;;;;;18.98;9.18;;;7.50;99.90;;;;;;5072595;28;20489;-52
2022/03/19 03:48:14;;;;;;;17.13;9.32;;;7.50;99.90;;;;;;5072399;28;20029;-52
2022/03/19 03:50:40;;;;;;;15.13;9.40;;;7.50;99.90;;;;;;5072347;28;20125;-52
2022/03/19 03:53:06;;;;;;;15.90;9.70;;;7.40;99.90;;;;;;5073416;28;20024;-52
2022/03/19 03:55:33;;;;;;;24.38;10.48;;;7.40;99.90;;;;;;5070901;28;20267;-52
2022/03/19 03:58:03;;;;;;;17.42;9.95;;;7.40;99.90;;;;;;5072156;28;20044;-52
2022/03/19 04:00:29;;;;;;;20.33;10.55;;;7.40;99.90;;;;;;5072508;28;20450;-52
2022/03/19 04:02:55;;;;;;;19.42;10.70;;;7.30;99.90;;;;;;5071857;28;20033;-52
2022/03/19 04:05:20;;;;;;;14.57;10.48;;;7.40;99.90;;;;;;5072241;28;20024;-52
2022/03/19 04:07:46;;;;;;;22.55;11.02;;;7.30;99.90;;;;;;5072426;28;20489;-52
2022/03/19 04:10:12;;;;;;;17.90;11.35;;;7.30;99.90;;;;;;5071878;28;20100;-52
2022/03/19 04:12:38;;;;;;;20.20;11.25;;;7.30;99.90;;;;;;5072165;28;20032;-52
2022/03/19 04:15:05;;;;;;;20.05;10.50;;;7.30;99.90;;;;;;5071759;28;20029;-52
2022/03/19 04:17:31;;;;;;;22.13;11.77;;;7.30;99.90;;;;;;5071672;28;20077;-52
2022/03/19 04:19:56;;;;;;;21.98;12.13;;;7.30;99.90;;;;;;5071785;28;20478;-52
2022/03/19 04:22:22;;;;;;;19.42;11.15;;;7.30;99.90;;;;;;5071727;28;20070;-52
2022/03/19 04:24:48;;;;;;;23.15;12.27;;;7.20;99.90;;;;;;5071776;28;20025;-52
2022/03/19 04:27:14;;;;;;;23.33;12.15;;;7.20;99.90;;;;;;5071332;28;20385;-52
2022/03/19 04:29:41;;;;;;;19.90;12.10;;;7.20;99.90;;;;;;5071505;28;20019;-52
2022/03/19 04:32:07;;;;;;;22.90;12.57;;;7.20;99.90;;;;;;5071473;28;20091;-52
2022/03/19 04:34:33;;;;;;;20.42;12.35;;;7.20;99.90;;;;;;5071380;28;20023;-52
2022/03/19 04:36:59;;;;;;;18.40;12.65;;;7.20;99.90;;;;;;5071589;28;20028;-52
2022/03/19 04:39:25;;;;;;;18.95;12.43;;;7.10;99.90;;;;;;5071375;28;20024;-52
2022/03/19 04:41:50;;;;;;;25.17;12.73;;;7.10;99.90;;;;;;5071642;28;20458;-52
2022/03/19 04:44:16;;;;;;;20.13;11.68;;;7.00;99.90;;;;;;5071375;28;20349;-52
2022/03/19 04:46:42;;;;;;;20.25;13.40;;;7.00;99.90;;;;;;5071049;28;20271;-52
2022/03/19 04:49:09;;;;;;;22.95;13.18;;;6.90;99.90;;;;;;5071081;28;20048;-52
2022/03/19 04:51:37;;;;;;;20.20;13.10;;;7.00;99.90;;;;;;5071224;28;20059;-52
2022/03/19 04:54:04;;;;;;;21.25;13.02;;;7.00;99.90;;;;;;5071096;28;20032;-52
2022/03/19 04:56:30;;;;;;;25.15;14.02;;;6.90;99.90;;;;;;5071031;28;20024;-52
2022/03/19 04:58:58;;;;;;;22.02;13.27;;;6.80;99.90;;;;;;5069704;28;20055;-52
2022/03/19 05:01:28;;;;;;;21.75;13.40;;;6.80;99.90;;;;;;5071237;28;20029;-52
2022/03/19 05:03:54;;;;;;;23.83;13.63;;;6.90;99.90;;;;;;5071098;28;20064;-52
2022/03/19 05:06:21;;;;;;;25.33;13.73;;;6.80;99.90;;;;;;5070344;28;20051;-52
2022/03/19 05:08:47;;;;;;;27.75;14.20;;;6.80;99.90;;;;;;5071080;28;20545;-52
2022/03/19 05:11:12;;;;;;;22.05;13.98;;;6.80;99.90;;;;;;5071074;28;20024;-52
2022/03/19 05:13:38;;;;;;;23.10;14.68;;;6.90;99.90;;;;;;5070688;28;20051;-52
2022/03/19 05:16:04;;;;;;;22.35;13.73;;;6.80;99.90;;;;;;5070896;28;20124;-52
2022/03/19 05:18:30;;;;;;;23.23;14.57;;;6.70;99.90;;;;;;5070946;28;20080;-52
2022/03/19 05:20:58;;;;;;;19.55;13.73;;;6.80;99.90;;;;;;5071445;28;20111;-52
2022/03/19 05:23:24;;;;;;;23.85;14.57;;;6.80;99.90;;;;;;5071556;28;20108;-52
2022/03/19 05:25:50;;;;;;;29.45;14.15;;;6.70;99.90;;;;;;5071559;28;20107;-52
2022/03/19 05:28:16;;;;;;;29.02;14.20;;;6.70;99.90;;;;;;5071555;28;20074;-52
2022/03/19 05:30:42;;;;;;;25.38;14.55;;;6.80;99.90;;;;;;5070716;28;20024;-52
2022/03/19 05:33:08;;;;;;;23.83;14.48;;;6.80;99.90;;;;;;5070321;28;20100;-52
2022/03/19 05:35:34;;;;;;;21.70;14.18;;;6.80;99.90;;;;;;5070336;28;20506;-52
2022/03/19 05:38:00;;;;;;;23.67;15.48;;;6.80;99.90;;;;;;5071465;28;20036;-52
2022/03/19 05:40:27;;;;;;;22.85;13.63;;;6.80;99.90;;;;;;5070696;28;20017;-52
2022/03/19 05:42:52;;;;;;;25.20;15.52;;;6.70;99.90;;;;;;5070748;28;20067;-52
2022/03/19 05:45:20;;;;;;;23.70;14.43;;;6.70;99.90;;;;;;5070445;28;20051;-52
2022/03/19 05:47:46;;;;;;;24.35;14.65;;;6.60;99.90;;;;;;5072852;28;20024;-52
2022/03/19 05:50:12;;;;;;;28.77;15.93;;;6.60;99.90;;;;;;5074779;28;20029;-52
2022/03/19 05:52:39;;;;;;;25.85;14.63;;;6.60;99.90;;;;;;5074971;28;20393;-52
2022/03/19 05:55:05;;;;;;;23.60;14.85;;;6.60;99.90;;;;;;5072920;28;20032;-52
2022/03/19 05:57:31;;;;;;;24.25;14.85;;;6.70;99.90;;;;;;5074541;28;20039;-52
2022/03/19 05:59:56;;;;;;;22.85;13.85;;;6.60;99.90;;;;;;5074474;28;20031;-52
2022/03/19 06:02:22;;;;;;;26.52;14.35;;;6.60;99.90;;;;;;5074445;28;20028;-52
2022/03/19 06:04:47;;;;;;;19.17;13.80;;;6.60;99.90;;;;;;5074299;28;20035;-52
2022/03/19 06:07:13;;;;;;;19.83;13.85;;;6.60;99.90;;;;;;5074403;28;20517;-52
2022/03/19 06:09:39;;;;;;;23.88;13.95;;;6.70;99.90;;;;;;5074130;28;20025;-52
2022/03/19 06:12:04;;;;;;;19.92;13.77;;;6.70;99.90;;;;;;5074045;28;20056;-52
2022/03/19 06:14:30;;;;;;;24.98;13.63;;;6.60;99.90;;;;;;5089752;28;20086;-53
2022/03/19 06:16:56;;;;;;;21.25;13.70;;;6.60;99.90;;;;;;5074399;28;20107;-52
2022/03/19 06:19:21;;;;;;;24.70;13.48;;;6.60;99.90;;;;;;5074125;28;20028;-52
2022/03/19 06:21:47;;;;;;;20.85;13.00;;;6.60;99.90;;;;;;5073955;28;20205;-53
2022/03/19 06:24:13;;;;;;;26.48;13.32;;;6.50;99.90;;;;;;5074882;28;20069;-52
2022/03/19 06:26:39;;;;;;;20.23;13.15;;;6.60;99.90;;;;;;5074421;28;20111;-52
2022/03/19 06:29:05;;;;;;;20.10;12.90;;;6.60;99.90;;;;;;5074624;28;20515;-52
2022/03/19 06:31:31;;;;;;;21.58;13.18;;;6.60;99.90;;;;;;5074925;28;20474;-53
2022/03/19 06:33:56;;;;;;;23.15;12.18;;;6.70;99.90;;;;;;5073686;28;20099;-52
2022/03/19 06:39:07;;;;;;;20.40;12.73;;;6.80;99.90;;;;;;5074417;28;20031;-52
2022/03/19 06:41:33;;;;;;;18.55;11.98;;;6.80;99.90;;;;;;5074037;28;20024;-52
2022/03/19 06:43:59;;;;;;;19.75;12.10;;;6.80;99.90;;;;;;5073870;28;20032;-52
2022/03/19 06:46:25;;;;;;;21.73;11.98;;;6.90;99.90;;;;;;5074697;28;20028;-52
2022/03/19 06:48:51;;;;;;;24.88;13.32;;;6.90;99.90;;;;;;5073942;28;20021;-52
2022/03/19 06:51:18;;;;;;;19.27;12.45;;;6.90;99.90;;;;;;5074097;28;20127;-52
2022/03/19 06:53:44;;;;;;;20.90;12.95;;;7.00;99.90;;;;;;5075131;28;20021;-52
2022/03/19 06:56:10;;;;;;;20.63;12.25;;;7.00;99.90;;;;;;5074664;28;20078;-51
2022/03/19 06:58:36;;;;;;;20.92;12.82;;;6.90;99.90;;;;;;5073813;28;20033;-51
2022/03/19 07:01:03;;;;;;;23.17;12.70;;;7.00;99.90;;;;;;5074076;28;20485;-52
2022/03/19 07:03:29;;;;;;;17.63;12.48;;;7.10;99.90;;;;;;5073683;28;20485;-51
2022/03/19 07:05:55;;;;;;;20.05;12.15;;;7.20;99.90;;;;;;5073226;28;20050;-51
2022/03/19 07:08:20;;;;;;;19.55;12.35;;;7.20;99.90;;;;;;5073572;28;20049;-51
2022/03/19 07:10:46;;;;;;;19.92;11.82;;;7.30;99.90;;;;;;5073475;28;20020;-51
2022/03/19 07:13:12;;;;;;;24.00;12.35;;;7.40;99.90;;;;;;5073383;28;20021;-51
2022/03/19 07:15:37;;;;;;;24.10;11.73;;;7.50;99.90;;;;;;5073525;28;20466;-52
2022/03/19 07:18:03;;;;;;;21.23;12.25;;;7.50;99.90;;;;;;5074514;28;20028;-51
2022/03/19 07:20:30;;;;;;;18.90;11.18;;;7.50;99.90;;;;;;5073451;28;20107;-51
2022/03/19 07:23:00;;;;;;;19.45;11.82;;;7.60;99.90;;;;;;5073644;28;20028;-51
2022/03/19 07:25:31;;;;;;;21.70;11.57;;;7.70;99.90;;;;;;5072372;28;20033;-51
2022/03/19 07:27:59;;;;;;;17.90;10.98;;;7.80;99.90;;;;;;5072629;28;20025;-51
2022/03/19 07:30:26;;;;;;;22.75;11.05;;;7.90;99.90;;;;;;5072743;28;20047;-51
2022/03/19 07:32:52;;;;;;;20.30;11.77;;;7.90;99.90;;;;;;5072918;28;20493;-53
2022/03/19 07:35:20;;;;;;;17.33;10.05;;;8.00;99.90;;;;;;5072635;28;20059;-51
2022/03/19 07:37:46;;;;;;;21.23;11.32;;;8.00;99.90;;;;;;5072809;28;20032;-52
2022/03/19 07:43:08;;;;;;;24.58;11.27;;;8.00;99.90;;;;;;5073986;28;20035;-52
2022/03/19 07:45:35;;;;;;;15.05;10.88;;;8.10;99.90;;;;;;5073109;28;20104;-52
2022/03/19 07:48:01;;;;;;;20.30;10.90;;;8.20;99.90;;;;;;5072828;28;20048;-51
2022/03/19 07:50:27;;;;;;;19.10;10.80;;;8.30;99.90;;;;;;5072698;28;20551;-51
2022/03/19 07:52:52;;;;;;;20.45;11.07;;;8.40;99.90;;;;;;5073176;28;20025;-52
2022/03/19 07:55:19;;;;;;;17.15;10.23;;;8.40;99.90;;;;;;5073001;28;20028;-52
2022/03/19 07:57:44;;;;;;;16.35;9.00;;;8.50;99.90;;;;;;5072669;28;20099;-52
2022/03/19 08:00:12;;;;;;;22.45;11.20;;;8.60;99.90;;;;;;5072158;28;20496;-52
2022/03/19 08:02:39;;;;;;;15.75;9.75;;;8.70;99.90;;;;;;5072211;28;20490;-52
2022/03/19 08:05:06;;;;;;;13.55;9.60;;;8.90;99.90;;;;;;5072475;28;20012;-52
2022/03/19 08:07:32;;;;;;;13.65;8.35;;;9.70;99.90;;;;;;5071796;28;20044;-52
2022/03/19 08:09:58;;;;;;;13.10;8.10;;;10.70;99.90;;;;;;5071968;28;20078;-52
2022/03/19 08:12:25;;;;;;;13.65;8.02;;;11.60;99.90;;;;;;5071945;28;20020;-53
2022/03/19 08:14:51;;;;;;;18.85;7.82;;;12.60;99.90;;;;;;5071594;28;20056;-53
2022/03/19 08:17:18;;;;;;;13.18;7.47;;;13.40;99.90;;;;;;5071795;28;20028;-53
2022/03/19 08:19:45;;;;;;;10.23;6.18;;;13.60;99.90;;;;;;5071388;28;20509;-53
2022/03/19 08:22:11;;;;;;;25.63;7.90;;;13.90;99.80;;;;;;5072139;28;20085;-53
2022/03/19 08:24:37;;;;;;;13.73;6.35;;;13.80;99.50;;;;;;5071584;28;20096;-53
2022/03/19 08:27:03;;;;;;;15.77;6.82;;;14.10;98.40;;;;;;5071050;28;20033;-53
2022/03/19 08:29:29;;;;;;;13.20;7.18;;;14.00;98.50;;;;;;5071097;28;20075;-53
2022/03/19 08:31:55;;;;;;;10.63;6.60;;;14.20;97.60;;;;;;5072611;28;20039;-53
2022/03/19 08:34:21;;;;;;;11.80;6.25;;;14.60;96.60;;;;;;5072467;28;20025;-53
2022/03/19 08:36:47;;;;;;;10.25;6.20;;;14.50;96.00;;;;;;5072361;28;20031;-53
2022/03/19 08:41:58;;;;;;;12.07;6.00;;;14.20;95.70;;;;;;5072373;28;20040;-53
2022/03/19 08:44:25;;;;;;;10.65;6.40;;;14.10;96.00;;;;;;5071130;28;20029;-53
2022/03/19 08:46:51;;;;;;;17.95;6.63;;;14.30;95.50;;;;;;5071086;28;20032;-53
2022/03/19 08:49:17;;;;;;;10.27;5.93;;;14.30;95.50;;;;;;5071054;28;20024;-53
2022/03/19 08:51:42;;;;;;;12.00;5.82;;;14.20;95.10;;;;;;5071453;28;20526;-53
2022/03/19 08:54:16;;;;;;;11.43;5.18;;;14.00;96.10;;;;;;5071945;28;20056;-53
2022/03/19 08:56:44;;;;;;;15.82;6.25;;;14.50;94.90;;;;;;5070887;28;20029;-53
2022/03/19 08:59:10;;;;;;;9.63;5.53;;;14.40;94.40;;;;;;5071407;28;20116;-53
2022/03/19 09:01:38;;;;;;;9.65;5.40;;;14.70;94.20;;;;;;5071682;28;20020;-53
2022/03/19 09:04:04;;;;;;;12.27;5.60;;;15.10;93.80;;;;;;5071274;28;20429;-53
2022/03/19 09:06:30;;;;;;;7.75;5.40;;;15.00;93.50;;;;;;5071086;28;20027;-53
2022/03/19 09:08:55;;;;;;;9.35;5.75;;;15.00;92.90;;;;;;5071063;28;20080;-53
2022/03/19 09:11:23;;;;;;;9.57;5.90;;;15.10;93.30;;;;;;5070854;28;20099;-53
2022/03/19 09:13:50;;;;;;;11.43;5.65;;;15.40;92.60;;;;;;5070916;28;20036;-53
2022/03/19 09:16:17;;;;;;;14.68;6.18;;;15.80;91.80;;;;;;5070192;28;20039;-53
2022/03/19 09:18:43;;;;;;;8.35;5.22;;;16.00;91.30;;;;;;5070102;28;20618;-53
2022/03/19 09:21:09;;;;;;;13.93;6.00;;;16.20;90.60;;;;;;5070454;28;20025;-53
2022/03/19 09:23:35;;;;;;;15.68;6.05;;;16.30;90.10;;;;;;5070588;28;20027;-54
2022/03/19 09:26:01;;;;;;;11.90;5.45;;;15.90;90.20;;;;;;5070570;28;20033;-53
2022/03/19 09:28:29;;;;;;;10.02;4.85;;;15.60;90.40;;;;;;5070920;28;20032;-53
2022/03/19 09:30:55;;;;;;;15.15;5.35;;;15.50;90.30;;;;;;5071948;28;20646;-53
2022/03/19 09:33:21;;;;;;;10.48;5.55;;;15.80;90.40;;;;;;5070019;28;20035;-53
2022/03/19 09:35:47;;;;;;;13.40;5.72;;;15.80;90.10;;;;;;5070048;28;20032;-54
2022/03/19 09:38:13;;;;;;;12.93;5.13;;;16.40;90.00;;;;;;5069788;28;20477;-54
2022/03/19 09:40:40;;;;;;;12.02;5.25;;;16.90;88.90;;;;;;5069927;28;20082;-53
2022/03/19 09:43:06;;;;;;;12.55;5.50;;;17.10;85.50;;;;;;5070450;28;20028;-53
2022/03/19 09:45:33;;;;;;;8.40;4.88;;;16.90;86.00;;;;;;5069842;28;20032;-53
2022/03/19 09:47:59;;;;;;;10.20;5.50;;;16.80;87.10;;;;;;5069835;28;20429;-53
2022/03/19 09:50:26;;;;;;;10.10;4.97;;;17.00;86.60;;;;;;5069829;28;20048;-53
2022/03/19 09:52:57;;;;;;;16.77;4.72;;;17.30;85.20;;;;;;5069804;28;20561;-54
2022/03/19 09:55:27;;;;;;;22.05;4.65;;;17.50;81.30;;;;;;5070125;28;20460;-54
2022/03/19 09:57:54;;;;;;;8.65;4.82;;;17.10;82.20;;;;;;5070086;28;20486;-54
2022/03/19 10:00:22;;;;;;;8.60;4.75;;;16.90;83.80;;;;;;5068852;28;20041;-54
2022/03/19 10:02:53;;;;;;;9.82;4.43;;;17.00;82.30;;;;;;5069417;28;20035;-54
2022/03/19 10:10:49;;;;;;;8.73;4.43;;;16.70;81.60;;;;;;5069968;28;20032;-53
2022/03/19 10:13:15;;;;;;;9.25;4.22;;;16.60;81.10;;;;;;5070074;28;20029;-53
2022/03/19 10:15:41;;;;;;;9.20;4.22;;;16.10;81.70;;;;;;5069904;28;20108;-53
2022/03/19 10:18:10;;;;;;;9.57;4.43;;;16.60;82.70;;;;;;5069630;28;20029;-53
2022/03/19 10:20:37;;;;;;;14.35;4.80;;;17.20;81.90;;;;;;5069644;28;20033;-53
2022/03/19 10:23:03;;;;;;;7.75;4.30;;;17.30;82.20;;;;;;5067832;28;20025;-53
2022/03/19 10:25:30;;;;;;;9.30;4.10;;;17.60;82.00;;;;;;5069577;28;20073;-53
2022/03/19 10:28:13;;;;;;;11.95;4.13;;;17.70;79.40;;;;;;5069823;28;20036;-54
2022/03/19 10:30:40;;;;;;;13.25;4.05;;;17.00;80.20;;;;;;5070332;28;20056;-54
2022/03/19 10:33:10;;;;;;;20.08;4.60;;;16.90;79.80;;;;;;5071740;28;20466;-53
2022/03/19 10:35:41;;;;;;;8.43;4.32;;;16.60;79.70;;;;;;5073559;28;20093;-53
2022/03/19 10:38:22;;;;;;;13.15;4.20;;;16.40;80.40;;;;;;5073645;28;20032;-53
2022/03/19 10:40:51;;;;;;;9.23;3.90;;;16.60;80.20;;;;;;5073631;28;20035;-54
2022/03/19 10:43:18;;;;;;;9.32;4.28;;;16.50;79.50;;;;;;5073961;28;20116;-54
2022/03/19 10:45:47;;;;;;;13.27;4.13;;;16.40;79.20;;;;;;5073760;28;20031;-53
2022/03/19 10:48:18;;;;;;;11.52;3.83;;;16.10;80.60;;;;;;5074472;28;20201;-53
2022/03/19 10:50:44;;;;;;;7.55;3.67;;;16.60;79.40;;;;;;5073426;28;20059;-53
2022/03/19 10:53:10;;;;;;;7.57;3.47;;;17.40;78.30;;;;;;5073165;28;20049;-53
2022/03/19 10:55:36;;;;;;;7.68;2.90;;;17.20;75.70;;;;;;5074301;28;20107;-53
2022/03/19 10:58:02;;;;;;;13.23;3.45;;;16.90;70.60;;;;;;5073806;28;20538;-53
2022/03/19 11:00:28;;;;;;;7.43;3.47;;;16.50;69.00;;;;;;5073514;28;20024;-53
2022/03/19 11:02:57;;;;;;;10.82;3.17;;;16.40;70.70;;;;;;5073098;28;20060;-53
2022/03/19 11:05:27;;;;;;;8.30;3.33;;;16.50;71.00;;;;;;5088519;28;20112;-53
2022/03/19 11:07:54;;;;;;;27.10;4.03;;;16.90;70.40;;;;;;5072601;28;20127;-53
2022/03/19 11:10:21;;;;;;;7.95;2.70;;;16.70;71.50;;;;;;5072605;28;20048;-53
2022/03/19 11:12:53;;;;;;;5.45;3.13;;;16.90;70.10;;;;;;5072875;28;20099;-53
2022/03/19 11:15:20;;;;;;;10.30;3.57;;;17.10;70.70;;;;;;5071425;28;20036;-53
2022/03/19 11:17:49;;;;;;;8.48;3.25;;;17.60;69.50;;;;;;5073325;28;20131;-53
2022/03/19 11:20:14;;;;;;;5.95;2.97;;;18.00;68.30;;;;;;5075233;28;20021;-53
2022/03/19 11:22:54;;;;;;;10.57;3.65;;;17.00;69.70;;;;;;5073971;28;20025;-54
2022/03/19 11:25:26;;;;;;;8.88;3.55;;;17.20;69.80;;;;;;5072401;28;20516;-53
2022/03/19 11:27:57;;;;;;;6.83;2.93;;;17.90;68.80;;;;;;5072277;28;20027;-53
2022/03/19 11:30:24;;;;;;;14.48;3.38;;;17.00;69.90;;;;;;5072482;28;20112;-53
2022/03/19 11:33:08;;;;;;;10.95;3.35;;;17.10;72.50;;;;;;5072623;28;20106;-53
2022/03/19 11:35:40;;;;;;;13.15;3.60;;;17.90;68.20;;;;;;5072091;28;20063;-53
2022/03/19 11:38:20;;;;;;;7.65;3.35;;;18.60;66.20;;;;;;5074438;28;20025;-53
2022/03/19 11:40:54;;;;;;;6.90;3.53;;;18.40;67.60;;;;;;5073224;28;20525;-54
2022/03/19 11:43:33;;;;;;;7.93;3.28;;;18.40;67.10;;;;;;5087601;28;20035;-53
2022/03/19 11:46:12;;;;;;;6.28;3.30;;;18.60;68.10;;;;;;5071487;28;20020;-54
2022/03/19 11:48:50;;;;;;;8.75;3.30;;;18.50;67.60;;;;;;5071915;28;20071;-52
2022/03/19 11:51:25;;;;;;;6.57;3.20;;;18.40;67.00;;;;;;5071863;28;20427;-52
2022/03/19 11:54:12;;;;;;;8.60;3.50;;;19.10;66.90;;;;;;5071530;28;20062;-54
2022/03/19 11:56:41;;;;;;;5.97;3.03;;;19.80;64.80;;;;;;5071318;28;20032;-54
2022/03/19 11:59:15;;;;;;;8.90;3.33;;;20.80;61.90;;;;;;5071807;28;20025;-54
2022/03/19 12:01:48;;;;;;;7.63;3.47;;;20.40;61.60;;;;;;5071909;28;20100;-53
2022/03/19 12:04:14;;;;;;;;;;;20.50;61.70;;;;;;5072129;28;20032;-52
2022/03/19 12:06:57;;;;;;;8.95;3.75;;;19.50;59.90;;;;;;5070946;28;19919;-53
2022/03/19 12:09:40;;;;;;;10.88;3.58;;;18.90;62.50;;;;;;5071212;28;20443;-53
2022/03/19 12:12:13;;;;;;;10.85;4.07;;;19.60;61.40;;;;;;5071126;28;20434;-53
2022/03/19 12:14:40;;;;;;;6.32;3.47;;;19.70;62.00;;;;;;5071378;28;20036;-52
2022/03/19 12:17:31;;;;;;;7.63;4.05;;;19.70;62.00;;;;;;5071318;28;20105;-52
2022/03/19 12:20:01;;;;;;;7.32;3.60;;;19.50;61.90;;;;;;5071137;28;20074;-53
2022/03/19 12:22:39;;;;;;;7.47;4.22;;;19.70;63.30;;;;;;5070770;28;20056;-53
2022/03/19 12:25:18;;;;;;;7.63;3.80;;;19.90;62.50;;;;;;5070634;28;20151;-53
2022/03/19 12:27:51;;;;;;;9.35;3.85;;;20.40;62.60;;;;;;5069558;28;20024;-53
2022/03/19 12:30:18;;;;;;;7.00;3.72;;;21.20;59.30;;;;;;5071057;28;20085;-53
2022/03/19 12:32:56;;;;;;;8.50;3.97;;;20.80;60.40;;;;;;5070611;28;20028;-53
2022/03/19 12:35:37;;;;;;;5.63;3.55;;;20.60;62.10;;;;;;5070725;28;20029;-53
2022/03/19 12:38:03;;;;;;;9.18;3.50;;;20.50;58.60;;;;;;5070892;28;20031;-53
2022/03/19 12:41:23;;;;;;;10.32;3.58;;;20.50;58.10;;;;;;5071049;28;20021;-53
2022/03/19 12:43:17;;;;;;;8.25;3.85;;;20.30;59.90;;;;;;5070654;28;20508;-53
2022/03/19 12:45:46;;;;;;;6.72;3.20;;;20.80;58.90;;;;;;5070596;28;20024;-53
2022/03/19 12:48:15;;;;;;;9.38;3.50;;;21.30;56.50;;;;;;5069765;28;20012;-53
2022/03/19 12:50:51;;;;;;;8.98;3.15;;;21.40;55.50;;;;;;5070975;28;20032;-53
2022/03/19 12:53:28;;;;;;;11.57;3.25;;;21.10;55.30;;;;;;5070643;28;20021;-53
2022/03/19 12:56:12;;;;;;;6.47;3.13;;;20.80;56.30;;;;;;5070098;28;20024;-53
2022/03/19 12:58:39;;;;;;;9.25;3.60;;;21.00;55.90;;;;;;5070900;28;20460;-53
2022/03/19 13:01:08;;;;;;;7.85;3.22;;;21.50;54.50;;;;;;5070736;28;20033;-53
2022/03/19 13:03:34;;;;;;;6.38;3.20;;;21.80;52.90;;;;;;5070985;28;20024;-54